Carver, Oregon
Current Conditions -  °F | °C
As of 11:53 PM on Wednesday 28 Jan 2015 (Local Time) from KTTD Reporting Station
Few Clouds Few Clouds  
Wind Chill: 39°   Ceiling: Unl
Heat Index: 47°   Visibility: 10mi
Dew Point: 38°   Wind: 22mph
Humidity: 71%   Direction: 100°E
Pressure: 30.31"   Gusts: 35mph
Location:  45.4156°N, 122.523°W
Report Text: KTTD 290753Z AUTO 10019G30KT 10SM FEW110 08/03 A3031 RMK AO2 PK WND 09030/0748 SLP265 T00830033 401280083
Loading
Personal Weather Stations






























Interactive Weather Map New forecast layout! Learn more

10-Day Weather Forecast

Advertisements
Track Severe Weather on mobile